sensor_id;sensor_type;location;lat;lon;timestamp;P1;durP1;ratioP1;P2;durP2;ratioP2
73072;SDS011;61260;51.090;-1.786;2022-08-01T00:02:22;2.70;;;0.80;;
73072;SDS011;61260;51.090;-1.786;2022-08-01T00:04:54;2.10;;;0.80;;
73072;SDS011;61260;51.090;-1.786;2022-08-01T00:07:24;2.00;;;0.80;;
73072;SDS011;61260;51.090;-1.786;2022-08-01T00:09:54;3.10;;;1.00;;
73072;SDS011;61260;51.090;-1.786;2022-08-01T00:12:23;1.90;;;1.00;;
73072;SDS011;61260;51.090;-1.786;2022-08-01T00:14:53;1.60;;;0.80;;
73072;SDS011;61260;51.090;-1.786;2022-08-01T00:17:23;3.10;;;1.30;;
73072;SDS011;61260;51.090;-1.786;2022-08-01T00:19:52;2.80;;;1.10;;
73072;SDS011;61260;51.090;-1.786;2022-08-01T00:22:22;2.90;;;1.00;;
73072;SDS011;61260;51.090;-1.786;2022-08-01T00:24:51;2.60;;;0.90;;
73072;SDS011;61260;51.090;-1.786;2022-08-01T00:27:21;2.30;;;1.10;;
73072;SDS011;61260;51.090;-1.786;2022-08-01T00:29:51;2.10;;;1.10;;
73072;SDS011;61260;51.090;-1.786;2022-08-01T00:32:21;2.40;;;1.00;;
73072;SDS011;61260;51.090;-1.786;2022-08-01T00:34:50;3.80;;;1.10;;
73072;SDS011;61260;51.090;-1.786;2022-08-01T00:37:20;3.40;;;1.00;;
73072;SDS011;61260;51.090;-1.786;2022-08-01T00:39:50;2.70;;;1.00;;
73072;SDS011;61260;51.090;-1.786;2022-08-01T00:42:19;1.60;;;1.20;;
73072;SDS011;61260;51.090;-1.786;2022-08-01T00:44:49;2.50;;;1.00;;
73072;SDS011;61260;51.090;-1.786;2022-08-01T00:47:19;2.60;;;0.90;;
73072;SDS011;61260;51.090;-1.786;2022-08-01T00:49:49;2.80;;;0.90;;
73072;SDS011;61260;51.090;-1.786;2022-08-01T00:52:18;4.10;;;0.90;;
73072;SDS011;61260;51.090;-1.786;2022-08-01T00:54:48;2.30;;;1.10;;
73072;SDS011;61260;51.090;-1.786;2022-08-01T00:57:18;2.50;;;0.90;;
73072;SDS011;61260;51.090;-1.786;2022-08-01T00:59:48;2.40;;;1.10;;
73072;SDS011;61260;51.090;-1.786;2022-08-01T01:02:19;2.50;;;1.00;;
73072;SDS011;61260;51.090;-1.786;2022-08-01T01:04:49;2.50;;;1.00;;
73072;SDS011;61260;51.090;-1.786;2022-08-01T01:07:22;3.00;;;1.10;;
73072;SDS011;61260;51.090;-1.786;2022-08-01T01:09:58;3.70;;;1.00;;
73072;SDS011;61260;51.090;-1.786;2022-08-01T01:12:33;3.80;;;1.20;;
73072;SDS011;61260;51.090;-1.786;2022-08-01T01:15:13;3.10;;;1.20;;
73072;SDS011;61260;51.090;-1.786;2022-08-01T01:17:48;2.50;;;1.30;;
73072;SDS011;61260;51.090;-1.786;2022-08-01T01:20:24;3.90;;;1.40;;
73072;SDS011;61260;51.090;-1.786;2022-08-01T01:23:12;3.20;;;1.10;;
73072;SDS011;61260;51.090;-1.786;2022-08-01T01:26:08;3.20;;;1.30;;
73072;SDS011;61260;51.090;-1.786;2022-08-01T01:29:02;3.90;;;1.20;;
73072;SDS011;61260;51.090;-1.786;2022-08-01T01:31:39;3.00;;;1.20;;
73072;SDS011;61260;51.090;-1.786;2022-08-01T01:34:12;2.20;;;1.10;;
73072;SDS011;61260;51.090;-1.786;2022-08-01T01:36:45;3.00;;;0.90;;
73072;SDS011;61260;51.090;-1.786;2022-08-01T01:39:16;3.00;;;1.10;;
73072;SDS011;61260;51.090;-1.786;2022-08-01T01:41:48;1.80;;;0.90;;
73072;SDS011;61260;51.090;-1.786;2022-08-01T01:44:19;2.20;;;1.10;;
73072;SDS011;61260;51.090;-1.786;2022-08-01T01:46:49;2.80;;;1.10;;
73072;SDS011;61260;51.090;-1.786;2022-08-01T01:49:21;2.90;;;1.10;;
73072;SDS011;61260;51.090;-1.786;2022-08-01T01:51:53;2.80;;;1.00;;
73072;SDS011;61260;51.090;-1.786;2022-08-01T01:54:25;2.40;;;1.60;;
73072;SDS011;61260;51.090;-1.786;2022-08-01T01:56:59;3.00;;;1.20;;
73072;SDS011;61260;51.090;-1.786;2022-08-01T01:59:31;2.20;;;0.80;;
73072;SDS011;61260;51.090;-1.786;2022-08-01T02:02:03;2.90;;;1.20;;
73072;SDS011;61260;51.090;-1.786;2022-08-01T02:04:52;3.10;;;1.30;;
73072;SDS011;61260;51.090;-1.786;2022-08-01T02:07:24;1.50;;;0.70;;
73072;SDS011;61260;51.090;-1.786;2022-08-01T02:09:56;2.60;;;0.90;;
73072;SDS011;61260;51.090;-1.786;2022-08-01T02:12:28;2.20;;;1.10;;
73072;SDS011;61260;51.090;-1.786;2022-08-01T02:15:00;1.50;;;1.00;;
73072;SDS011;61260;51.090;-1.786;2022-08-01T02:17:32;1.80;;;1.10;;
73072;SDS011;61260;51.090;-1.786;2022-08-01T02:20:10;2.30;;;0.80;;
73072;SDS011;61260;51.090;-1.786;2022-08-01T02:22:42;2.00;;;1.00;;
73072;SDS011;61260;51.090;-1.786;2022-08-01T02:25:17;2.30;;;1.00;;
73072;SDS011;61260;51.090;-1.786;2022-08-01T02:27:53;2.20;;;1.10;;
73072;SDS011;61260;51.090;-1.786;2022-08-01T02:30:31;1.00;;;0.90;;
73072;SDS011;61260;51.090;-1.786;2022-08-01T02:33:05;1.10;;;0.60;;
73072;SDS011;61260;51.090;-1.786;2022-08-01T02:35:41;1.40;;;0.90;;
73072;SDS011;61260;51.090;-1.786;2022-08-01T02:38:13;1.30;;;0.80;;
73072;SDS011;61260;51.090;-1.786;2022-08-01T02:40:45;1.90;;;0.80;;
73072;SDS011;61260;51.090;-1.786;2022-08-01T02:43:18;0.90;;;0.70;;
73072;SDS011;61260;51.090;-1.786;2022-08-01T02:45:49;1.70;;;0.60;;
73072;SDS011;61260;51.090;-1.786;2022-08-01T02:48:24;1.70;;;0.50;;
73072;SDS011;61260;51.090;-1.786;2022-08-01T02:50:57;1.60;;;0.70;;
73072;SDS011;61260;51.090;-1.786;2022-08-01T02:53:30;2.60;;;0.50;;
73072;SDS011;61260;51.090;-1.786;2022-08-01T02:56:03;1.30;;;0.60;;
73072;SDS011;61260;51.090;-1.786;2022-08-01T02:58:36;0.80;;;0.60;;
73072;SDS011;61260;51.090;-1.786;2022-08-01T03:01:07;1.60;;;0.70;;
73072;SDS011;61260;51.090;-1.786;2022-08-01T03:03:38;1.40;;;0.90;;
73072;SDS011;61260;51.090;-1.786;2022-08-01T03:06:09;1.10;;;0.60;;
73072;SDS011;61260;51.090;-1.786;2022-08-01T03:08:40;2.90;;;0.80;;
73072;SDS011;61260;51.090;-1.786;2022-08-01T03:11:11;1.40;;;0.60;;
73072;SDS011;61260;51.090;-1.786;2022-08-01T03:13:42;2.90;;;0.70;;
73072;SDS011;61260;51.090;-1.786;2022-08-01T03:16:14;1.50;;;0.70;;
73072;SDS011;61260;51.090;-1.786;2022-08-01T03:18:45;0.80;;;0.50;;
73072;SDS011;61260;51.090;-1.786;2022-08-01T03:21:16;1.80;;;0.70;;
73072;SDS011;61260;51.090;-1.786;2022-08-01T03:23:47;2.00;;;0.60;;
73072;SDS011;61260;51.090;-1.786;2022-08-01T03:26:23;1.90;;;0.60;;
73072;SDS011;61260;51.090;-1.786;2022-08-01T03:28:56;1.30;;;0.70;;
73072;SDS011;61260;51.090;-1.786;2022-08-01T03:31:32;0.90;;;0.50;;
73072;SDS011;61260;51.090;-1.786;2022-08-01T03:34:04;1.40;;;0.60;;
73072;SDS011;61260;51.090;-1.786;2022-08-01T03:36:35;1.10;;;0.60;;
73072;SDS011;61260;51.090;-1.786;2022-08-01T03:39:10;2.10;;;0.60;;
73072;SDS011;61260;51.090;-1.786;2022-08-01T03:41:43;2.00;;;0.90;;
73072;SDS011;61260;51.090;-1.786;2022-08-01T03:44:20;2.40;;;0.70;;
73072;SDS011;61260;51.090;-1.786;2022-08-01T03:46:56;1.40;;;0.60;;
73072;SDS011;61260;51.090;-1.786;2022-08-01T03:49:30;1.50;;;0.70;;
73072;SDS011;61260;51.090;-1.786;2022-08-01T03:52:03;1.00;;;0.60;;
73072;SDS011;61260;51.090;-1.786;2022-08-01T03:54:36;0.90;;;0.50;;
73072;SDS011;61260;51.090;-1.786;2022-08-01T03:57:09;1.20;;;0.60;;
73072;SDS011;61260;51.090;-1.786;2022-08-01T03:59:40;1.80;;;0.80;;
73072;SDS011;61260;51.090;-1.786;2022-08-01T04:02:11;1.70;;;0.50;;
73072;SDS011;61260;51.090;-1.786;2022-08-01T04:04:43;0.70;;;0.70;;
73072;SDS011;61260;51.090;-1.786;2022-08-01T04:07:24;1.80;;;0.70;;
73072;SDS011;61260;51.090;-1.786;2022-08-01T04:09:55;1.20;;;0.70;;
73072;SDS011;61260;51.090;-1.786;2022-08-01T04:12:25;1.20;;;0.60;;
73072;SDS011;61260;51.090;-1.786;2022-08-01T04:14:55;0.70;;;0.50;;
73072;SDS011;61260;51.090;-1.786;2022-08-01T04:17:25;2.40;;;0.70;;
73072;SDS011;61260;51.090;-1.786;2022-08-01T04:19:55;1.30;;;0.60;;
73072;SDS011;61260;51.090;-1.786;2022-08-01T04:22:24;1.50;;;0.60;;
73072;SDS011;61260;51.090;-1.786;2022-08-01T04:24:55;1.40;;;0.50;;
73072;SDS011;61260;51.090;-1.786;2022-08-01T04:27:27;0.70;;;0.40;;
73072;SDS011;61260;51.090;-1.786;2022-08-01T04:30:00;0.80;;;0.50;;
73072;SDS011;61260;51.090;-1.786;2022-08-01T04:32:31;1.30;;;0.60;;
73072;SDS011;61260;51.090;-1.786;2022-08-01T04:35:06;0.90;;;0.50;;
73072;SDS011;61260;51.090;-1.786;2022-08-01T04:37:39;0.80;;;0.60;;
73072;SDS011;61260;51.090;-1.786;2022-08-01T04:40:11;1.70;;;0.70;;
73072;SDS011;61260;51.090;-1.786;2022-08-01T04:42:42;0.50;;;0.40;;
73072;SDS011;61260;51.090;-1.786;2022-08-01T04:45:12;1.40;;;0.50;;
73072;SDS011;61260;51.090;-1.786;2022-08-01T04:47:42;0.90;;;0.50;;
73072;SDS011;61260;51.090;-1.786;2022-08-01T04:50:14;0.80;;;0.50;;
73072;SDS011;61260;51.090;-1.786;2022-08-01T04:52:44;1.50;;;0.40;;
73072;SDS011;61260;51.090;-1.786;2022-08-01T04:55:14;1.30;;;0.70;;
73072;SDS011;61260;51.090;-1.786;2022-08-01T04:57:44;1.00;;;0.60;;
73072;SDS011;61260;51.090;-1.786;2022-08-01T05:00:16;0.80;;;0.40;;
73072;SDS011;61260;51.090;-1.786;2022-08-01T05:02:46;2.20;;;0.60;;
73072;SDS011;61260;51.090;-1.786;2022-08-01T05:05:15;1.20;;;0.60;;
73072;SDS011;61260;51.090;-1.786;2022-08-01T05:07:47;1.40;;;0.50;;
73072;SDS011;61260;51.090;-1.786;2022-08-01T05:10:16;1.40;;;0.50;;
73072;SDS011;61260;51.090;-1.786;2022-08-01T05:12:46;1.40;;;0.50;;
73072;SDS011;61260;51.090;-1.786;2022-08-01T05:15:17;1.10;;;0.60;;
73072;SDS011;61260;51.090;-1.786;2022-08-01T05:17:47;1.00;;;0.60;;
73072;SDS011;61260;51.090;-1.786;2022-08-01T05:20:17;1.20;;;0.50;;
73072;SDS011;61260;51.090;-1.786;2022-08-01T05:22:47;1.60;;;0.60;;
73072;SDS011;61260;51.090;-1.786;2022-08-01T05:25:16;0.60;;;0.50;;
73072;SDS011;61260;51.090;-1.786;2022-08-01T05:27:46;1.00;;;0.50;;
73072;SDS011;61260;51.090;-1.786;2022-08-01T05:30:17;1.20;;;0.60;;
73072;SDS011;61260;51.090;-1.786;2022-08-01T05:32:47;1.00;;;0.50;;
73072;SDS011;61260;51.090;-1.786;2022-08-01T05:35:16;1.70;;;0.60;;
73072;SDS011;61260;51.090;-1.786;2022-08-01T05:37:46;0.60;;;0.50;;
73072;SDS011;61260;51.090;-1.786;2022-08-01T05:40:16;0.70;;;0.40;;
73072;SDS011;61260;51.090;-1.786;2022-08-01T05:42:45;1.40;;;0.60;;
73072;SDS011;61260;51.090;-1.786;2022-08-01T05:45:15;0.90;;;0.50;;
73072;SDS011;61260;51.090;-1.786;2022-08-01T05:47:44;0.70;;;0.50;;
73072;SDS011;61260;51.090;-1.786;2022-08-01T05:50:14;1.20;;;0.50;;
73072;SDS011;61260;51.090;-1.786;2022-08-01T05:52:44;0.70;;;0.50;;
73072;SDS011;61260;51.090;-1.786;2022-08-01T05:55:14;1.90;;;0.70;;
73072;SDS011;61260;51.090;-1.786;2022-08-01T05:57:43;1.20;;;0.50;;
73072;SDS011;61260;51.090;-1.786;2022-08-01T06:00:14;2.20;;;0.60;;
73072;SDS011;61260;51.090;-1.786;2022-08-01T06:02:44;1.30;;;0.50;;
73072;SDS011;61260;51.090;-1.786;2022-08-01T06:05:13;1.40;;;0.50;;
73072;SDS011;61260;51.090;-1.786;2022-08-01T06:07:43;1.40;;;0.50;;
73072;SDS011;61260;51.090;-1.786;2022-08-01T06:10:13;0.80;;;0.50;;
73072;SDS011;61260;51.090;-1.786;2022-08-01T06:12:42;2.40;;;0.70;;
73072;SDS011;61260;51.090;-1.786;2022-08-01T06:15:12;1.30;;;0.40;;
73072;SDS011;61260;51.090;-1.786;2022-08-01T06:17:42;1.20;;;0.50;;
73072;SDS011;61260;51.090;-1.786;2022-08-01T06:20:11;1.80;;;0.70;;
73072;SDS011;61260;51.090;-1.786;2022-08-01T06:22:41;1.70;;;0.60;;
73072;SDS011;61260;51.090;-1.786;2022-08-01T06:25:11;0.70;;;0.60;;
73072;SDS011;61260;51.090;-1.786;2022-08-01T06:27:40;0.80;;;0.60;;
73072;SDS011;61260;51.090;-1.786;2022-08-01T06:30:11;1.40;;;0.60;;
73072;SDS011;61260;51.090;-1.786;2022-08-01T06:32:41;0.70;;;0.50;;
73072;SDS011;61260;51.090;-1.786;2022-08-01T06:35:11;0.40;;;0.40;;
73072;SDS011;61260;51.090;-1.786;2022-08-01T06:37:40;1.30;;;0.60;;
73072;SDS011;61260;51.090;-1.786;2022-08-01T06:42:41;1.30;;;0.30;;
73072;SDS011;61260;51.090;-1.786;2022-08-01T06:45:12;1.20;;;0.50;;
73072;SDS011;61260;51.090;-1.786;2022-08-01T06:47:42;2.10;;;0.60;;
73072;SDS011;61260;51.090;-1.786;2022-08-01T06:50:12;1.10;;;0.50;;
73072;SDS011;61260;51.090;-1.786;2022-08-01T06:52:42;2.60;;;0.70;;
73072;SDS011;61260;51.090;-1.786;2022-08-01T06:55:12;2.10;;;0.80;;
73072;SDS011;61260;51.090;-1.786;2022-08-01T06:57:48;1.40;;;0.50;;
73072;SDS011;61260;51.090;-1.786;2022-08-01T07:00:19;1.90;;;0.60;;
73072;SDS011;61260;51.090;-1.786;2022-08-01T07:02:50;1.50;;;0.50;;
73072;SDS011;61260;51.090;-1.786;2022-08-01T07:05:20;0.90;;;0.70;;
73072;SDS011;61260;51.090;-1.786;2022-08-01T07:07:50;2.60;;;0.50;;
73072;SDS011;61260;51.090;-1.786;2022-08-01T07:10:20;1.10;;;0.70;;
73072;SDS011;61260;51.090;-1.786;2022-08-01T07:12:50;3.00;;;0.80;;
73072;SDS011;61260;51.090;-1.786;2022-08-01T07:15:19;1.00;;;0.50;;
73072;SDS011;61260;51.090;-1.786;2022-08-01T07:17:52;1.50;;;0.70;;
73072;SDS011;61260;51.090;-1.786;2022-08-01T07:20:23;3.60;;;0.80;;
73072;SDS011;61260;51.090;-1.786;2022-08-01T07:22:53;1.20;;;0.40;;
73072;SDS011;61260;51.090;-1.786;2022-08-01T07:25:22;2.30;;;0.60;;
73072;SDS011;61260;51.090;-1.786;2022-08-01T07:27:52;1.20;;;0.50;;
73072;SDS011;61260;51.090;-1.786;2022-08-01T07:30:22;0.50;;;0.50;;
73072;SDS011;61260;51.090;-1.786;2022-08-01T07:32:52;2.10;;;0.70;;
73072;SDS011;61260;51.090;-1.786;2022-08-01T07:35:21;2.90;;;0.60;;
73072;SDS011;61260;51.090;-1.786;2022-08-01T07:37:51;0.90;;;0.50;;
73072;SDS011;61260;51.090;-1.786;2022-08-01T07:40:21;1.40;;;0.60;;
73072;SDS011;61260;51.090;-1.786;2022-08-01T07:42:50;1.00;;;0.50;;
73072;SDS011;61260;51.090;-1.786;2022-08-01T07:45:20;1.60;;;0.50;;
73072;SDS011;61260;51.090;-1.786;2022-08-01T07:47:50;1.30;;;0.70;;
73072;SDS011;61260;51.090;-1.786;2022-08-01T07:50:20;1.40;;;0.60;;
73072;SDS011;61260;51.090;-1.786;2022-08-01T07:52:49;2.40;;;0.70;;
73072;SDS011;61260;51.090;-1.786;2022-08-01T07:55:19;1.10;;;0.50;;
73072;SDS011;61260;51.090;-1.786;2022-08-01T07:57:49;1.60;;;0.50;;
73072;SDS011;61260;51.090;-1.786;2022-08-01T08:00:18;2.40;;;0.70;;
73072;SDS011;61260;51.090;-1.786;2022-08-01T08:02:48;2.00;;;0.80;;
73072;SDS011;61260;51.090;-1.786;2022-08-01T08:05:18;3.00;;;0.50;;
73072;SDS011;61260;51.090;-1.786;2022-08-01T08:07:47;2.60;;;0.50;;
73072;SDS011;61260;51.090;-1.786;2022-08-01T08:10:17;1.40;;;0.60;;
73072;SDS011;61260;51.090;-1.786;2022-08-01T08:12:47;1.30;;;0.60;;
73072;SDS011;61260;51.090;-1.786;2022-08-01T08:15:16;2.00;;;0.60;;
73072;SDS011;61260;51.090;-1.786;2022-08-01T08:17:46;1.50;;;0.70;;
73072;SDS011;61260;51.090;-1.786;2022-08-01T08:20:16;1.70;;;0.70;;
73072;SDS011;61260;51.090;-1.786;2022-08-01T08:22:51;2.40;;;0.70;;
73072;SDS011;61260;51.090;-1.786;2022-08-01T08:25:21;1.60;;;0.80;;
73072;SDS011;61260;51.090;-1.786;2022-08-01T08:27:51;1.20;;;0.50;;
73072;SDS011;61260;51.090;-1.786;2022-08-01T08:30:20;0.90;;;0.50;;
73072;SDS011;61260;51.090;-1.786;2022-08-01T08:32:50;1.00;;;0.70;;
73072;SDS011;61260;51.090;-1.786;2022-08-01T08:35:20;1.70;;;0.70;;
73072;SDS011;61260;51.090;-1.786;2022-08-01T08:37:50;2.30;;;0.50;;
73072;SDS011;61260;51.090;-1.786;2022-08-01T08:40:20;2.60;;;0.70;;
73072;SDS011;61260;51.090;-1.786;2022-08-01T08:42:56;3.10;;;0.80;;
73072;SDS011;61260;51.090;-1.786;2022-08-01T08:45:27;1.30;;;0.50;;
73072;SDS011;61260;51.090;-1.786;2022-08-01T08:47:57;2.90;;;0.80;;
73072;SDS011;61260;51.090;-1.786;2022-08-01T08:50:28;2.20;;;0.60;;
73072;SDS011;61260;51.090;-1.786;2022-08-01T08:52:58;1.90;;;0.60;;
73072;SDS011;61260;51.090;-1.786;2022-08-01T08:55:29;1.90;;;0.60;;
73072;SDS011;61260;51.090;-1.786;2022-08-01T08:57:59;2.50;;;0.60;;
73072;SDS011;61260;51.090;-1.786;2022-08-01T09:00:32;0.90;;;0.50;;
73072;SDS011;61260;51.090;-1.786;2022-08-01T09:03:02;2.10;;;0.50;;
73072;SDS011;61260;51.090;-1.786;2022-08-01T09:05:32;0.70;;;0.70;;
73072;SDS011;61260;51.090;-1.786;2022-08-01T09:08:01;2.00;;;0.70;;
73072;SDS011;61260;51.090;-1.786;2022-08-01T09:10:36;1.90;;;0.50;;
73072;SDS011;61260;51.090;-1.786;2022-08-01T09:13:08;1.70;;;0.60;;
73072;SDS011;61260;51.090;-1.786;2022-08-01T09:15:39;1.70;;;0.70;;
73072;SDS011;61260;51.090;-1.786;2022-08-01T09:21:09;1.60;;;0.50;;
73072;SDS011;61260;51.090;-1.786;2022-08-01T09:23:41;1.60;;;0.60;;
73072;SDS011;61260;51.090;-1.786;2022-08-01T09:26:13;1.20;;;0.50;;
73072;SDS011;61260;51.090;-1.786;2022-08-01T09:28:45;4.10;;;0.70;;
73072;SDS011;61260;51.090;-1.786;2022-08-01T09:31:15;1.40;;;0.50;;
73072;SDS011;61260;51.090;-1.786;2022-08-01T09:33:50;2.20;;;0.70;;
73072;SDS011;61260;51.090;-1.786;2022-08-01T09:36:22;1.20;;;0.70;;
73072;SDS011;61260;51.090;-1.786;2022-08-01T09:38:53;0.70;;;0.60;;
73072;SDS011;61260;51.090;-1.786;2022-08-01T09:41:30;2.30;;;0.60;;
73072;SDS011;61260;51.090;-1.786;2022-08-01T09:44:00;1.50;;;1.00;;
73072;SDS011;61260;51.090;-1.786;2022-08-01T09:46:29;2.80;;;1.00;;
73072;SDS011;61260;51.090;-1.786;2022-08-01T09:49:00;1.10;;;0.60;;
73072;SDS011;61260;51.090;-1.786;2022-08-01T09:51:34;2.90;;;1.00;;
73072;SDS011;61260;51.090;-1.786;2022-08-01T09:54:05;1.80;;;0.80;;
73072;SDS011;61260;51.090;-1.786;2022-08-01T09:56:39;2.50;;;0.90;;
73072;SDS011;61260;51.090;-1.786;2022-08-01T09:59:09;2.20;;;1.00;;
73072;SDS011;61260;51.090;-1.786;2022-08-01T10:01:43;2.40;;;1.20;;
73072;SDS011;61260;51.090;-1.786;2022-08-01T10:04:14;2.90;;;1.70;;
73072;SDS011;61260;51.090;-1.786;2022-08-01T10:06:45;3.50;;;1.10;;
73072;SDS011;61260;51.090;-1.786;2022-08-01T10:09:26;1.90;;;1.40;;
73072;SDS011;61260;51.090;-1.786;2022-08-01T10:14:26;3.30;;;1.20;;
73072;SDS011;61260;51.090;-1.786;2022-08-01T10:16:57;2.60;;;1.20;;
73072;SDS011;61260;51.090;-1.786;2022-08-01T10:19:28;2.70;;;1.30;;
73072;SDS011;61260;51.090;-1.786;2022-08-01T10:21:59;1.60;;;1.30;;
73072;SDS011;61260;51.090;-1.786;2022-08-01T10:24:33;2.80;;;1.40;;
73072;SDS011;61260;51.090;-1.786;2022-08-01T10:27:06;4.40;;;1.30;;
73072;SDS011;61260;51.090;-1.786;2022-08-01T10:29:39;1.50;;;1.10;;
73072;SDS011;61260;51.090;-1.786;2022-08-01T10:32:10;3.20;;;1.60;;
73072;SDS011;61260;51.090;-1.786;2022-08-01T10:34:40;3.50;;;1.30;;
73072;SDS011;61260;51.090;-1.786;2022-08-01T10:37:10;1.70;;;1.10;;
73072;SDS011;61260;51.090;-1.786;2022-08-01T10:39:42;1.70;;;1.30;;
73072;SDS011;61260;51.090;-1.786;2022-08-01T10:42:12;2.40;;;1.10;;
73072;SDS011;61260;51.090;-1.786;2022-08-01T10:44:42;1.90;;;1.40;;
73072;SDS011;61260;51.090;-1.786;2022-08-01T10:47:14;1.90;;;1.40;;
73072;SDS011;61260;51.090;-1.786;2022-08-01T10:52:24;2.70;;;1.50;;
73072;SDS011;61260;51.090;-1.786;2022-08-01T10:55:02;2.30;;;1.20;;
73072;SDS011;61260;51.090;-1.786;2022-08-01T10:57:42;3.10;;;1.40;;
73072;SDS011;61260;51.090;-1.786;2022-08-01T11:00:16;2.20;;;1.60;;
73072;SDS011;61260;51.090;-1.786;2022-08-01T11:02:58;2.80;;;1.50;;
73072;SDS011;61260;51.090;-1.786;2022-08-01T11:05:31;3.30;;;1.70;;
73072;SDS011;61260;51.090;-1.786;2022-08-01T11:08:02;1.70;;;1.50;;
73072;SDS011;61260;51.090;-1.786;2022-08-01T11:10:38;1.60;;;1.40;;
73072;SDS011;61260;51.090;-1.786;2022-08-01T11:13:09;2.00;;;1.30;;
73072;SDS011;61260;51.090;-1.786;2022-08-01T11:15:39;3.30;;;1.40;;
73072;SDS011;61260;51.090;-1.786;2022-08-01T11:21:00;2.30;;;1.30;;
73072;SDS011;61260;51.090;-1.786;2022-08-01T11:23:30;2.40;;;1.40;;
73072;SDS011;61260;51.090;-1.786;2022-08-01T11:26:17;1.80;;;1.70;;
73072;SDS011;61260;51.090;-1.786;2022-08-01T11:31:41;2.30;;;1.20;;
73072;SDS011;61260;51.090;-1.786;2022-08-01T11:34:11;1.80;;;1.30;;
73072;SDS011;61260;51.090;-1.786;2022-08-01T11:36:41;2.60;;;1.20;;
73072;SDS011;61260;51.090;-1.786;2022-08-01T11:39:14;1.40;;;1.30;;
73072;SDS011;61260;51.090;-1.786;2022-08-01T11:41:46;1.60;;;1.20;;
73072;SDS011;61260;51.090;-1.786;2022-08-01T11:44:20;2.60;;;1.20;;
73072;SDS011;61260;51.090;-1.786;2022-08-01T11:46:54;1.40;;;1.10;;
73072;SDS011;61260;51.090;-1.786;2022-08-01T11:49:30;1.30;;;1.00;;
73072;SDS011;61260;51.090;-1.786;2022-08-01T11:52:13;1.70;;;1.00;;
73072;SDS011;61260;51.090;-1.786;2022-08-01T11:54:44;3.10;;;1.10;;
73072;SDS011;61260;51.090;-1.786;2022-08-01T11:57:17;1.40;;;1.00;;
73072;SDS011;61260;51.090;-1.786;2022-08-01T11:59:48;1.10;;;0.90;;
73072;SDS011;61260;51.090;-1.786;2022-08-01T12:02:21;1.60;;;0.90;;
73072;SDS011;61260;51.090;-1.786;2022-08-01T12:04:53;1.40;;;0.90;;
73072;SDS011;61260;51.090;-1.786;2022-08-01T12:07:25;1.30;;;1.00;;
73072;SDS011;61260;51.090;-1.786;2022-08-01T12:10:01;1.80;;;1.00;;
73072;SDS011;61260;51.090;-1.786;2022-08-01T12:12:34;2.00;;;0.90;;
73072;SDS011;61260;51.090;-1.786;2022-08-01T12:15:06;1.80;;;0.90;;
73072;SDS011;61260;51.090;-1.786;2022-08-01T12:17:38;3.00;;;1.00;;
73072;SDS011;61260;51.090;-1.786;2022-08-01T12:20:10;1.50;;;1.10;;
73072;SDS011;61260;51.090;-1.786;2022-08-01T12:22:41;1.30;;;1.00;;
73072;SDS011;61260;51.090;-1.786;2022-08-01T12:25:11;1.90;;;1.20;;
73072;SDS011;61260;51.090;-1.786;2022-08-01T12:27:43;1.70;;;1.00;;
73072;SDS011;61260;51.090;-1.786;2022-08-01T12:30:15;2.50;;;1.20;;
73072;SDS011;61260;51.090;-1.786;2022-08-01T12:32:46;1.80;;;0.90;;
73072;SDS011;61260;51.090;-1.786;2022-08-01T12:37:49;1.70;;;1.20;;
73072;SDS011;61260;51.090;-1.786;2022-08-01T12:40:21;1.40;;;0.80;;
73072;SDS011;61260;51.090;-1.786;2022-08-01T12:42:52;1.40;;;1.10;;
73072;SDS011;61260;51.090;-1.786;2022-08-01T12:45:23;2.30;;;1.00;;
73072;SDS011;61260;51.090;-1.786;2022-08-01T12:47:55;1.60;;;0.90;;
73072;SDS011;61260;51.090;-1.786;2022-08-01T12:50:27;1.10;;;1.00;;
73072;SDS011;61260;51.090;-1.786;2022-08-01T12:52:58;2.30;;;0.90;;
73072;SDS011;61260;51.090;-1.786;2022-08-01T12:55:28;1.90;;;1.20;;
73072;SDS011;61260;51.090;-1.786;2022-08-01T12:58:04;1.00;;;0.90;;
73072;SDS011;61260;51.090;-1.786;2022-08-01T13:00:35;3.10;;;0.90;;
73072;SDS011;61260;51.090;-1.786;2022-08-01T13:03:09;1.80;;;1.10;;
73072;SDS011;61260;51.090;-1.786;2022-08-01T13:05:43;1.50;;;1.10;;
73072;SDS011;61260;51.090;-1.786;2022-08-01T13:08:15;1.40;;;0.90;;
73072;SDS011;61260;51.090;-1.786;2022-08-01T13:10:46;1.30;;;0.90;;
73072;SDS011;61260;51.090;-1.786;2022-08-01T13:13:17;1.30;;;0.80;;
73072;SDS011;61260;51.090;-1.786;2022-08-01T13:15:47;1.50;;;0.80;;
73072;SDS011;61260;51.090;-1.786;2022-08-01T13:18:30;1.80;;;0.90;;
73072;SDS011;61260;51.090;-1.786;2022-08-01T13:21:11;1.00;;;0.80;;
73072;SDS011;61260;51.090;-1.786;2022-08-01T13:23:42;0.80;;;0.80;;
73072;SDS011;61260;51.090;-1.786;2022-08-01T13:26:42;1.00;;;0.80;;
73072;SDS011;61260;51.090;-1.786;2022-08-01T13:29:14;2.20;;;0.90;;
73072;SDS011;61260;51.090;-1.786;2022-08-01T13:31:46;1.90;;;0.90;;
73072;SDS011;61260;51.090;-1.786;2022-08-01T13:34:17;2.30;;;0.90;;
73072;SDS011;61260;51.090;-1.786;2022-08-01T13:36:57;3.30;;;0.90;;
73072;SDS011;61260;51.090;-1.786;2022-08-01T13:39:28;1.60;;;0.90;;
73072;SDS011;61260;51.090;-1.786;2022-08-01T13:42:11;1.20;;;0.70;;
73072;SDS011;61260;51.090;-1.786;2022-08-01T13:44:42;2.00;;;0.90;;
73072;SDS011;61260;51.090;-1.786;2022-08-01T13:47:13;1.20;;;1.00;;
73072;SDS011;61260;51.090;-1.786;2022-08-01T13:49:42;1.40;;;0.70;;
73072;SDS011;61260;51.090;-1.786;2022-08-01T13:52:12;0.80;;;0.60;;
73072;SDS011;61260;51.090;-1.786;2022-08-01T13:54:42;0.50;;;0.50;;
73072;SDS011;61260;51.090;-1.786;2022-08-01T13:57:11;1.40;;;0.80;;
73072;SDS011;61260;51.090;-1.786;2022-08-01T13:59:42;1.40;;;0.50;;
73072;SDS011;61260;51.090;-1.786;2022-08-01T14:02:12;2.30;;;0.70;;
73072;SDS011;61260;51.090;-1.786;2022-08-01T14:04:42;1.30;;;0.80;;
73072;SDS011;61260;51.090;-1.786;2022-08-01T14:07:11;1.90;;;0.70;;
73072;SDS011;61260;51.090;-1.786;2022-08-01T14:09:41;1.00;;;0.80;;
73072;SDS011;61260;51.090;-1.786;2022-08-01T14:12:11;1.60;;;0.70;;
73072;SDS011;61260;51.090;-1.786;2022-08-01T14:14:40;1.00;;;0.80;;
73072;SDS011;61260;51.090;-1.786;2022-08-01T14:17:10;0.80;;;0.70;;
73072;SDS011;61260;51.090;-1.786;2022-08-01T14:19:40;1.50;;;0.60;;
73072;SDS011;61260;51.090;-1.786;2022-08-01T14:22:09;2.40;;;0.80;;
73072;SDS011;61260;51.090;-1.786;2022-08-01T14:24:39;1.10;;;0.60;;
73072;SDS011;61260;51.090;-1.786;2022-08-01T14:27:09;0.90;;;0.60;;
73072;SDS011;61260;51.090;-1.786;2022-08-01T14:29:38;0.60;;;0.40;;
73072;SDS011;61260;51.090;-1.786;2022-08-01T14:32:08;1.20;;;0.50;;
73072;SDS011;61260;51.090;-1.786;2022-08-01T14:34:37;0.90;;;0.60;;
73072;SDS011;61260;51.090;-1.786;2022-08-01T14:37:07;0.70;;;0.40;;
73072;SDS011;61260;51.090;-1.786;2022-08-01T14:39:37;1.70;;;0.40;;
73072;SDS011;61260;51.090;-1.786;2022-08-01T14:42:06;1.60;;;0.60;;
73072;SDS011;61260;51.090;-1.786;2022-08-01T14:44:36;0.70;;;0.40;;
73072;SDS011;61260;51.090;-1.786;2022-08-01T14:47:06;1.00;;;0.50;;
73072;SDS011;61260;51.090;-1.786;2022-08-01T14:49:36;1.10;;;0.80;;
73072;SDS011;61260;51.090;-1.786;2022-08-01T14:52:06;0.90;;;0.60;;
73072;SDS011;61260;51.090;-1.786;2022-08-01T14:54:35;1.20;;;0.60;;
73072;SDS011;61260;51.090;-1.786;2022-08-01T14:57:05;1.40;;;0.50;;
73072;SDS011;61260;51.090;-1.786;2022-08-01T14:59:36;2.30;;;0.70;;
73072;SDS011;61260;51.090;-1.786;2022-08-01T15:02:06;1.10;;;0.60;;
73072;SDS011;61260;51.090;-1.786;2022-08-01T15:04:37;1.00;;;0.60;;
73072;SDS011;61260;51.090;-1.786;2022-08-01T15:07:07;1.20;;;0.80;;
73072;SDS011;61260;51.090;-1.786;2022-08-01T15:09:37;2.10;;;0.60;;
73072;SDS011;61260;51.090;-1.786;2022-08-01T15:12:07;0.90;;;0.40;;
73072;SDS011;61260;51.090;-1.786;2022-08-01T15:14:38;1.80;;;0.50;;
73072;SDS011;61260;51.090;-1.786;2022-08-01T15:17:18;1.80;;;0.50;;
73072;SDS011;61260;51.090;-1.786;2022-08-01T15:19:51;0.90;;;0.40;;